Time;durP1;ratioP1;P1;durP2;ratioP2;P2;SDS_P1;SDS_P2;PMS_P1;PMS_P2;Temp;Humidity;BMP_temperature;BMP_pressure;BME280_temperature;BME280_humidity;BME280_pressure;Samples;Min_cycle;Max_cycle;Signal;HPM_P1;HPM_P2
2021/09/11 00:00:03;;;;;;;18.40;4.72;;;;;;;17.93;75.99;101384.47;5032828;28;20025;-43
2021/09/11 00:02:29;;;;;;;21.30;6.07;;;;;;;17.93;76.21;101385.31;5032461;28;20103;-44
2021/09/11 00:04:54;;;;;;;12.98;5.07;;;;;;;17.96;76.03;101386.78;5028975;28;20033;-41
2021/09/11 00:07:20;;;;;;;18.20;5.40;;;;;;;17.98;76.09;101380.06;5017412;28;20463;-42
2021/09/11 00:09:45;;;;;;;18.58;5.50;;;;;;;17.93;76.20;101373.56;5032617;28;20090;-43
2021/09/11 00:12:11;;;;;;;28.55;6.05;;;;;;;17.95;76.51;101374.19;5033670;28;20469;-43
2021/09/11 00:14:36;;;;;;;18.52;5.38;;;;;;;17.94;76.45;101377.97;5032765;28;20140;-43
2021/09/11 00:17:02;;;;;;;17.75;5.15;;;;;;;17.96;76.21;101373.97;5033158;28;20025;-43
2021/09/11 00:19:27;;;;;;;18.92;5.18;;;;;;;17.97;76.48;101372.91;5032884;28;20036;-43
2021/09/11 00:21:53;;;;;;;16.45;5.85;;;;;;;17.96;76.63;101370.44;5032941;28;20030;-43
2021/09/11 00:24:18;;;;;;;14.50;5.00;;;;;;;17.93;76.65;101381.72;5032595;28;20082;-43
2021/09/11 00:26:43;;;;;;;15.98;5.22;;;;;;;17.95;76.79;101374.19;5032963;28;20112;-44
2021/09/11 00:29:09;;;;;;;23.73;6.10;;;;;;;17.94;76.57;101372.53;5032275;28;20176;-44
2021/09/11 00:31:34;;;;;;;17.73;4.72;;;;;;;17.96;76.59;101381.31;5032225;28;20052;-43
2021/09/11 00:34:00;;;;;;;28.13;5.78;;;;;;;17.97;76.80;101377.53;5032670;28;20037;-43
2021/09/11 00:36:25;;;;;;;20.90;5.13;;;;;;;17.91;76.93;101379.25;5032640;28;20041;-43
2021/09/11 00:38:51;;;;;;;20.40;5.13;;;;;;;17.95;76.73;101374.19;5032588;28;20021;-43
2021/09/11 00:41:16;;;;;;;16.67;5.28;;;;;;;17.96;77.01;101375.88;5032718;28;20121;-42
2021/09/11 00:43:48;;;;;;;18.60;5.40;;;;;;;17.95;76.76;101375.00;5030739;28;20139;-42
2021/09/11 00:46:15;;;;;;;21.60;5.47;;;;;;;17.94;77.05;101372.53;5032478;28;20021;-43
2021/09/11 00:48:41;;;;;;;19.98;5.15;;;;;;;17.95;77.08;101375.00;5032481;28;20031;-43
2021/09/11 00:51:06;;;;;;;14.57;4.57;;;;;;;17.98;77.12;101379.19;5031502;28;20029;-42
2021/09/11 00:53:32;;;;;;;21.45;5.88;;;;;;;17.96;77.20;101375.88;5032359;28;20159;-42
2021/09/11 00:55:58;;;;;;;17.67;5.55;;;;;;;17.99;77.21;101375.44;5032725;28;20126;-43
2021/09/11 00:58:23;;;;;;;18.45;5.03;;;;;;;17.96;77.32;101375.88;5031533;28;20049;-42
2021/09/11 01:00:48;;;;;;;19.48;5.25;;;;;;;18.00;77.16;101377.09;5025884;28;20567;-42
2021/09/11 01:03:14;;;;;;;16.75;4.47;;;;;;;17.99;77.38;101372.72;5022225;28;20440;-43
2021/09/11 01:05:40;;;;;;;21.38;5.40;;;;;;;17.97;77.36;101380.25;5032284;28;20060;-43
2021/09/11 01:08:06;;;;;;;21.63;5.83;;;;;;;17.99;77.40;101383.59;5032567;28;20025;-43
2021/09/11 01:10:32;;;;;;;20.42;7.05;;;;;;;18.04;77.30;101380.22;5032025;28;20851;-43
2021/09/11 01:12:58;;;;;;;25.00;10.05;;;;;;;17.93;77.60;101387.19;5031735;28;20038;-43
2021/09/11 01:15:34;;;;;;;24.45;10.40;;;;;;;17.84;78.07;101383.03;5032251;28;20026;-43
2021/09/11 01:18:00;;;;;;;24.48;9.43;;;;;;;17.81;78.17;101378.03;5031972;28;20033;-44
2021/09/11 01:20:26;;;;;;;22.52;10.50;;;;;;;17.75;78.54;101380.53;5032544;28;20166;-43
2021/09/11 01:22:51;;;;;;;21.83;10.63;;;;;;;17.72;78.65;101378.25;5032421;28;20496;-43
2021/09/11 01:25:17;;;;;;;30.92;10.50;;;;;;;17.72;78.67;101380.97;5032646;28;20115;-43
2021/09/11 01:27:42;;;;;;;26.65;10.90;;;;;;;17.70;78.76;101382.25;5031697;28;20033;-42
2021/09/11 01:30:11;;;;;;;23.92;11.00;;;;;;;17.63;79.21;101384.16;5031782;28;20132;-43
2021/09/11 01:32:37;;;;;;;29.85;12.45;;;;;;;17.55;79.41;101379.78;5031964;28;20026;-43
2021/09/11 01:35:03;;;;;;;26.95;10.80;;;;;;;17.60;79.23;101381.88;5032521;28;20120;-42
2021/09/11 01:37:29;;;;;;;28.17;11.35;;;;;;;17.58;79.34;101384.78;5032308;28;20465;-42
2021/09/11 01:39:54;;;;;;;34.38;12.70;;;;;;;17.54;79.48;101378.13;5032445;28;20096;-43
2021/09/11 01:42:22;;;;;;;24.02;11.43;;;;;;;17.54;79.70;101389.84;5033067;28;20497;-42
2021/09/11 01:44:48;;;;;;;25.52;12.43;;;;;;;17.53;79.78;101381.88;5043357;28;20049;-43
2021/09/11 01:47:14;;;;;;;26.55;12.80;;;;;;;17.50;79.76;101390.47;5031620;28;20030;-43
2021/09/11 01:49:39;;;;;;;29.45;12.77;;;;;;;17.45;80.23;101393.00;5032123;28;20535;-43
2021/09/11 01:52:05;;;;;;;28.83;12.93;;;;;;;17.46;80.87;101391.97;5032551;28;20026;-42
2021/09/11 01:54:31;;;;;;;29.52;13.32;;;;;;;17.40;80.74;101392.81;5032021;28;20052;-43
2021/09/11 01:56:56;;;;;;;39.78;14.57;;;;;;;17.39;81.18;101391.16;5031546;28;20516;-43
2021/09/11 01:59:21;;;;;;;40.63;15.75;;;;;;;17.36;81.87;101391.59;5031774;28;20112;-43
2021/09/11 02:01:47;;;;;;;32.47;15.40;;;;;;;17.33;81.55;101388.22;5020106;28;20088;-43
2021/09/11 02:04:12;;;;;;;32.53;15.25;;;;;;;17.27;82.52;101389.09;5035970;28;20091;-43
2021/09/11 02:06:37;;;;;;;38.60;16.58;;;;;;;17.27;83.00;101394.53;5035660;28;20392;-43
2021/09/11 02:09:03;;;;;;;38.60;16.25;;;;;;;17.21;83.05;101379.03;5036246;28;20461;-42
2021/09/11 02:11:28;;;;;;;38.58;17.15;;;;;;;17.23;83.23;101376.94;5035491;28;20027;-43
2021/09/11 02:13:53;;;;;;;43.00;17.63;;;;;;;17.17;83.23;101383.25;5034483;28;20023;-43
2021/09/11 02:16:18;;;;;;;53.83;17.95;;;;;;;17.21;82.97;101381.75;5031794;28;20108;-43
2021/09/11 02:18:44;;;;;;;41.83;18.33;;;;;;;17.19;83.20;101380.31;5032342;28;20650;-43
2021/09/11 02:21:09;;;;;;;39.50;16.38;;;;;;;17.16;82.97;101378.84;5025949;28;20545;-43
2021/09/11 02:23:34;;;;;;;50.03;18.33;;;;;;;17.22;82.86;101385.31;5016362;28;20109;-43
2021/09/11 02:26:00;;;;;;;36.33;16.25;;;;;;;17.21;83.30;101383.66;5032141;28;20112;-43
2021/09/11 02:28:25;;;;;;;43.95;16.15;;;;;;;17.26;82.99;101379.25;5035122;28;20060;-43
2021/09/11 02:30:50;;;;;;;44.65;16.63;;;;;;;17.25;82.93;101380.31;5034703;28;20052;-43
2021/09/11 02:33:16;;;;;;;41.78;15.98;;;;;;;17.22;82.79;101380.72;5035244;28;20370;-43
2021/09/11 02:35:41;;;;;;;45.20;15.38;;;;;;;17.23;83.08;101382.41;5035000;28;20504;-43
2021/09/11 02:38:06;;;;;;;34.00;15.50;;;;;;;17.21;83.05;101375.50;5035233;28;20481;-43
2021/09/11 02:40:32;;;;;;;43.55;15.60;;;;;;;17.24;82.92;101380.50;5035052;28;20477;-43
2021/09/11 02:42:57;;;;;;;45.10;16.52;;;;;;;17.23;82.98;101374.22;5035309;28;20033;-43
2021/09/11 02:45:22;;;;;;;34.42;15.43;;;;;;;17.30;83.00;101383.22;5035477;28;20485;-43
2021/09/11 02:47:47;;;;;;;32.85;15.23;;;;;;;17.22;82.84;101379.88;5035161;28;20021;-43
2021/09/11 02:50:13;;;;;;;42.42;15.40;;;;;;;17.20;83.00;101380.09;5034981;28;20433;-43
2021/09/11 02:52:38;;;;;;;43.33;15.90;;;;;;;17.27;83.05;101375.50;5035012;28;20025;-43
2021/09/11 02:55:04;;;;;;;43.30;15.70;;;;;;;17.27;82.85;101383.66;5034867;28;20033;-43
2021/09/11 02:57:29;;;;;;;36.92;15.50;;;;;;;17.26;83.22;101378.41;5034637;28;20022;-43
2021/09/11 02:59:55;;;;;;;33.15;13.35;;;;;;;17.31;82.77;101368.56;5034370;28;20052;-43
2021/09/11 03:02:20;;;;;;;37.53;14.35;;;;;;;17.31;82.76;101374.00;5016448;28;20042;-43
2021/09/11 03:04:45;;;;;;;37.22;15.02;;;;;;;17.29;82.70;101369.81;5031368;28;20025;-42
2021/09/11 03:07:10;;;;;;;34.45;14.65;;;;;;;17.30;82.50;101375.06;5034846;28;20073;-41
2021/09/11 03:09:36;;;;;;;39.97;14.60;;;;;;;17.31;82.64;101376.72;5034727;28;20026;-42
2021/09/11 03:12:01;;;;;;;36.63;13.95;;;;;;;17.29;82.91;101370.66;5034513;28;20179;-43
2021/09/11 03:14:26;;;;;;;40.15;14.32;;;;;;;17.26;82.75;101375.69;5034268;28;20053;-43
2021/09/11 03:16:52;;;;;;;30.35;13.52;;;;;;;17.32;82.83;101374.81;5034654;28;20048;-44
2021/09/11 03:19:17;;;;;;;44.80;14.07;;;;;;;17.31;82.67;101374.00;5033753;28;20040;-42
2021/09/11 03:21:42;;;;;;;33.22;13.77;;;;;;;17.32;82.78;101369.38;5031795;28;20040;-42
2021/09/11 03:24:08;;;;;;;39.05;14.90;;;;;;;17.31;82.61;101371.28;5034590;28;20026;-42
2021/09/11 03:26:33;;;;;;;42.92;15.18;;;;;;;17.28;82.88;101374.44;5034613;28;20033;-43
2021/09/11 03:28:58;;;;;;;48.63;14.88;;;;;;;17.26;82.97;101379.25;5034777;28;20022;-43
2021/09/11 03:31:24;;;;;;;30.25;12.90;;;;;;;17.26;83.24;101375.69;5034087;28;20037;-43
2021/09/11 03:33:49;;;;;;;36.13;13.80;;;;;;;17.31;83.32;101375.88;5033767;28;20037;-43
2021/09/11 03:36:14;;;;;;;39.08;13.15;;;;;;;17.29;82.81;101381.53;5033924;28;20041;-43
2021/09/11 03:38:40;;;;;;;38.88;13.65;;;;;;;17.26;83.10;101381.13;5034599;28;20033;-42
2021/09/11 03:41:05;;;;;;;38.08;14.05;;;;;;;17.23;82.95;101378.84;5034402;28;20022;-43
2021/09/11 03:43:30;;;;;;;38.40;13.88;;;;;;;17.21;83.26;101379.03;5033755;28;20071;-42
2021/09/11 03:45:55;;;;;;;46.00;15.07;;;;;;;17.19;83.44;101381.13;5033895;28;20520;-41
2021/09/11 03:48:21;;;;;;;43.65;14.45;;;;;;;17.18;83.23;101378.66;5033485;28;20061;-42
2021/09/11 03:50:46;;;;;;;32.50;14.60;;;;;;;17.16;83.36;101381.56;5034432;28;20404;-43
2021/09/11 03:53:11;;;;;;;36.17;15.07;;;;;;;17.13;83.69;101375.72;5034125;28;20037;-43
2021/09/11 03:55:37;;;;;;;38.10;16.52;;;;;;;17.11;83.58;101381.38;5033949;28;20117;-42
2021/09/11 03:58:02;;;;;;;48.30;15.82;;;;;;;17.15;83.57;101389.94;5032864;28;20112;-42
2021/09/11 04:00:27;;;;;;;37.65;15.70;;;;;;;17.16;83.53;101370.69;5030740;28;20034;-42
2021/09/11 04:02:53;;;;;;;39.80;16.92;;;;;;;17.07;83.74;101380.13;5014214;28;20032;-42
2021/09/11 04:05:18;;;;;;;43.78;16.85;;;;;;;17.03;84.01;101376.16;5019379;28;20039;-42
2021/09/11 04:07:43;;;;;;;40.63;16.10;;;;;;;17.08;83.81;101379.06;5034126;28;20029;-43
2021/09/11 04:10:09;;;;;;;38.63;16.42;;;;;;;17.11;84.05;101389.53;5033844;28;20037;-43
2021/09/11 04:12:34;;;;;;;47.72;19.33;;;;;;;17.06;85.47;101381.16;5032376;28;20029;-43
2021/09/11 04:15:00;;;;;;;48.55;19.30;;;;;;;17.00;85.53;101385.56;5033667;28;20083;-43
2021/09/11 04:17:25;;;;;;;53.05;21.20;;;;;;;16.96;85.69;101388.94;5033668;28;20022;-43
2021/09/11 04:19:51;;;;;;;59.03;21.55;;;;;;;16.85;85.98;101388.53;5033821;28;20079;-43
2021/09/11 04:22:16;;;;;;;43.45;21.80;;;;;;;16.78;86.19;101384.97;5031834;28;20082;-45
2021/09/11 04:24:41;;;;;;;61.63;22.20;;;;;;;16.82;86.62;101388.91;5032628;28;20072;-44
2021/09/11 04:27:06;;;;;;;54.35;22.45;;;;;;;16.76;86.69;101381.59;5032910;28;20021;-45
2021/09/11 04:29:32;;;;;;;46.85;22.05;;;;;;;16.75;86.73;101385.38;5033002;28;20037;-45
2021/09/11 04:31:57;;;;;;;52.90;24.17;;;;;;;16.67;86.78;101383.69;5032224;28;20045;-44
2021/09/11 04:34:22;;;;;;;57.50;24.10;;;;;;;16.66;86.83;101381.16;5034195;28;20109;-45
2021/09/11 04:36:48;;;;;;;57.30;23.60;;;;;;;16.65;86.96;101390.38;5029673;28;20044;-44
2021/09/11 04:39:13;;;;;;;66.82;24.10;;;;;;;16.67;87.00;101388.28;5016585;28;20026;-44
2021/09/11 04:41:38;;;;;;;51.45;23.27;;;;;;;16.64;87.00;101384.09;5009968;28;20121;-44
2021/09/11 04:44:04;;;;;;;56.88;23.63;;;;;;;16.65;86.92;101385.78;5034835;28;20072;-43
2021/09/11 04:46:29;;;;;;;49.08;23.38;;;;;;;16.65;87.29;101384.94;5048733;28;20112;-43
2021/09/11 04:48:54;;;;;;;55.67;24.15;;;;;;;16.65;87.01;101384.94;5049413;28;20112;-43
2021/09/11 04:51:21;;;;;;;59.97;25.15;;;;;;;16.64;87.19;101385.97;5036897;28;20035;-43
2021/09/11 04:53:48;;;;;;;50.45;23.45;;;;;;;16.70;87.29;101387.03;5029415;28;20536;-44
2021/09/11 04:56:13;;;;;;;53.88;23.75;;;;;;;16.71;87.13;101388.69;5029591;28;20036;-44
2021/09/11 04:58:38;;;;;;;63.60;24.42;;;;;;;16.71;86.85;101394.97;5029141;28;20033;-42
2021/09/11 05:01:03;;;;;;;56.63;24.90;;;;;;;16.71;87.33;101392.25;5028829;28;20025;-43
2021/09/11 05:03:29;;;;;;;51.88;23.60;;;;;;;16.76;87.11;101389.75;5029549;28;20132;-44
2021/09/11 05:05:54;;;;;;;55.85;23.83;;;;;;;16.83;87.07;101387.91;5029435;28;20503;-43
2021/09/11 05:08:21;;;;;;;56.03;23.98;;;;;;;16.85;87.14;101383.09;5029431;28;20035;-42
2021/09/11 05:10:47;;;;;;;53.40;25.33;;;;;;;16.82;87.04;101394.34;5028467;28;20121;-42
2021/09/11 05:13:12;;;;;;;52.65;24.15;;;;;;;16.86;87.16;101401.06;5015953;28;20688;-42
2021/09/11 05:15:37;;;;;;;61.17;26.35;;;;;;;16.82;86.98;101397.06;5028295;28;20671;-43
2021/09/11 05:18:03;;;;;;;65.28;25.33;;;;;;;16.85;87.09;101399.41;5025131;28;20032;-42
2021/09/11 05:20:28;;;;;;;53.25;27.50;;;;;;;16.85;87.20;101404.84;5014642;28;20056;-42
2021/09/11 05:22:54;;;;;;;58.67;26.48;;;;;;;16.89;87.24;101403.34;5010643;28;20029;-42
2021/09/11 05:25:19;;;;;;;56.60;28.92;;;;;;;16.86;87.16;101395.63;5029356;28;20029;-42
2021/09/11 05:27:44;;;;;;;62.42;27.00;;;;;;;16.87;87.22;101391.84;5029175;28;20033;-42
2021/09/11 05:30:11;;;;;;;63.35;27.00;;;;;;;16.94;87.21;101383.69;5029232;28;20036;-43
2021/09/11 05:32:36;;;;;;;63.67;27.60;;;;;;;16.93;87.27;101386.63;5029322;28;20025;-43
2021/09/11 05:35:01;;;;;;;66.70;27.88;;;;;;;16.94;87.23;101393.75;5010606;28;20036;-42
2021/09/11 05:37:27;;;;;;;62.05;28.27;;;;;;;16.96;87.26;101397.09;5028827;28;20120;-43
2021/09/11 05:39:52;;;;;;;61.63;27.40;;;;;;;16.99;87.20;101396.66;5028950;28;20026;-42
2021/09/11 05:42:19;;;;;;;60.95;26.73;;;;;;;16.99;87.17;101407.53;5029197;28;20033;-44
2021/09/11 05:44:44;;;;;;;76.43;27.60;;;;;;;16.91;87.54;101407.75;5028804;28;20187;-42
2021/09/11 05:47:11;;;;;;;75.93;29.73;;;;;;;16.96;87.62;101410.69;5029158;28;20508;-43
2021/09/11 05:49:36;;;;;;;74.32;28.48;;;;;;;16.97;87.38;101426.78;5028926;28;20026;-42
2021/09/11 05:52:02;;;;;;;70.18;28.35;;;;;;;16.97;87.17;101424.06;5022639;28;20145;-43
2021/09/11 05:54:27;;;;;;;72.50;29.23;;;;;;;16.99;86.90;101424.69;5009446;28;20029;-43
2021/09/11 05:56:52;;;;;;;75.82;28.75;;;;;;;17.00;87.21;101429.06;5018740;28;20144;-44
2021/09/11 05:59:18;;;;;;;78.20;30.08;;;;;;;17.00;87.12;101426.34;5028785;28;20057;-43
2021/09/11 06:01:43;;;;;;;73.13;28.17;;;;;;;17.04;86.96;101426.78;5028172;28;20745;-42
2021/09/11 06:04:09;;;;;;;56.20;26.73;;;;;;;17.04;87.03;101432.22;5030111;28;20472;-43
2021/09/11 06:06:34;;;;;;;74.78;27.85;;;;;;;17.03;86.89;101431.38;5030516;28;20025;-44
2021/09/11 06:08:59;;;;;;;60.75;27.02;;;;;;;17.09;87.04;101440.59;5030825;28;20025;-42
2021/09/11 06:11:25;;;;;;;64.95;27.77;;;;;;;17.10;86.82;101442.25;5029538;28;20044;-43
2021/09/11 06:13:50;;;;;;;71.75;27.95;;;;;;;17.08;86.91;101449.78;5028846;28;20464;-42
2021/09/11 06:16:16;;;;;;;71.07;27.83;;;;;;;17.10;86.95;101453.13;5028845;28;20098;-43
2021/09/11 06:18:42;;;;;;;72.70;27.95;;;;;;;17.08;86.84;101460.66;5028922;28;20036;-43
2021/09/11 06:21:07;;;;;;;63.28;26.30;;;;;;;17.10;86.68;101451.25;5028336;28;20022;-43
2021/09/11 06:23:32;;;;;;;72.10;27.23;;;;;;;17.12;86.69;101453.78;5031178;28;20025;-43
2021/09/11 06:25:58;;;;;;;64.43;29.40;;;;;;;17.10;87.04;101455.84;5031563;28;20021;-43
2021/09/11 06:28:24;;;;;;;66.50;28.67;;;;;;;17.10;87.22;101458.56;5030186;28;20055;-42
2021/09/11 06:30:50;;;;;;;70.07;29.05;;;;;;;17.13;86.98;101458.16;5026149;28;20029;-43
2021/09/11 06:33:16;;;;;;;63.92;27.23;;;;;;;17.12;87.12;101456.50;5029270;28;20029;-43
2021/09/11 06:35:41;;;;;;;81.10;28.55;;;;;;;17.14;87.38;101457.13;5031558;28;20021;-43
2021/09/11 06:38:06;;;;;;;78.60;29.98;;;;;;;17.03;87.65;101457.72;5031608;28;20071;-44
2021/09/11 06:40:32;;;;;;;73.35;30.42;;;;;;;16.98;88.03;101460.25;5031846;28;20021;-43
2021/09/11 06:42:57;;;;;;;67.93;29.30;;;;;;;16.94;88.09;101461.72;5031555;28;20026;-44
2021/09/11 06:45:22;;;;;;;70.85;29.73;;;;;;;16.99;88.28;101461.94;5031413;28;20112;-44
2021/09/11 06:47:48;;;;;;;78.60;29.83;;;;;;;16.94;88.21;101467.16;5031224;28;20029;-45
2021/09/11 06:50:13;;;;;;;78.15;30.70;;;;;;;16.97;88.71;101467.56;5035404;28;20029;-43
2021/09/11 06:52:39;;;;;;;76.40;30.90;;;;;;;16.98;88.27;101471.97;5035051;28;20087;-45
2021/09/11 06:55:04;;;;;;;82.13;30.05;;;;;;;16.95;88.33;101468.81;5035127;28;20112;-45
2021/09/11 06:57:30;;;;;;;69.22;28.63;;;;;;;16.96;88.17;101473.22;5035009;28;20418;-44
2021/09/11 06:59:56;;;;;;;77.13;29.05;;;;;;;17.00;88.22;101479.91;5034934;28;20029;-44
2021/09/11 07:02:21;;;;;;;70.30;28.42;;;;;;;17.01;88.29;101474.28;5034940;28;20022;-44
2021/09/11 07:04:47;;;;;;;69.22;28.88;;;;;;;17.03;87.74;101479.47;5034843;28;20075;-45
2021/09/11 07:07:12;;;;;;;63.53;27.92;;;;;;;16.98;87.58;101479.28;5033550;28;20029;-44
2021/09/11 07:09:37;;;;;;;75.15;29.42;;;;;;;17.02;87.72;101483.25;5034892;28;20029;-44
2021/09/11 07:12:03;;;;;;;75.60;29.95;;;;;;;17.05;88.13;101480.13;5034787;28;20104;-44
2021/09/11 07:14:28;;;;;;;70.65;27.83;;;;;;;17.07;88.01;101486.19;5035063;28;20397;-44
2021/09/11 07:16:53;;;;;;;79.32;29.42;;;;;;;17.09;87.78;101489.53;5034915;28;20029;-44
2021/09/11 07:19:19;;;;;;;87.30;29.83;;;;;;;17.10;88.00;101493.94;5033483;28;20490;-44
2021/09/11 07:21:44;;;;;;;67.75;28.10;;;;;;;17.10;87.52;101496.66;5034619;28;20025;-44
2021/09/11 07:24:09;;;;;;;67.78;28.15;;;;;;;17.17;87.75;101496.63;5034407;28;20018;-44
2021/09/11 07:26:35;;;;;;;66.15;27.50;;;;;;;17.21;87.15;101493.28;5034372;28;20418;-44
2021/09/11 07:29:00;;;;;;;56.85;25.08;;;;;;;17.26;87.01;101495.38;5034355;28;20535;-44
2021/09/11 07:31:25;;;;;;;69.53;25.95;;;;;;;17.18;87.09;101498.31;5034377;28;20018;-44
2021/09/11 07:33:51;;;;;;;75.15;28.23;;;;;;;17.09;86.90;101498.53;5034659;28;20026;-45
2021/09/11 07:36:16;;;;;;;71.03;28.00;;;;;;;17.17;87.57;101497.50;5034362;28;20025;-44
2021/09/11 07:38:42;;;;;;;69.63;28.30;;;;;;;17.22;87.29;101505.88;5034384;28;20025;-45
2021/09/11 07:41:07;;;;;;;72.20;29.02;;;;;;;17.24;86.93;101502.91;5034162;28;20053;-43
2021/09/11 07:43:33;;;;;;;63.33;27.58;;;;;;;17.27;86.79;101506.06;5033860;28;20485;-43
2021/09/11 07:45:58;;;;;;;64.07;27.85;;;;;;;17.29;86.43;101505.84;5034091;28;20034;-44
2021/09/11 07:48:24;;;;;;;67.97;28.35;;;;;;;17.36;86.74;101506.69;5034019;28;20091;-43
2021/09/11 07:50:49;;;;;;;85.18;29.17;;;;;;;17.47;86.68;101508.75;5032504;28;20017;-44
2021/09/11 07:53:15;;;;;;;69.22;28.10;;;;;;;17.63;86.92;101501.19;5033893;28;20428;-44
2021/09/11 07:55:41;;;;;;;67.05;28.13;;;;;;;17.63;85.37;101522.97;5033878;28;20065;-44
2021/09/11 07:58:06;;;;;;;68.55;29.60;;;;;;;17.62;85.60;101522.16;5033783;28;20453;-44
2021/09/11 08:00:31;;;;;;;69.75;29.45;;;;;;;17.62;86.06;101511.25;5033469;28;20047;-43
2021/09/11 08:02:57;;;;;;;74.57;30.90;;;;;;;17.59;86.04;101527.16;5033818;28;20026;-43
2021/09/11 08:05:23;;;;;;;59.45;28.85;;;;;;;17.61;86.16;101531.34;5032577;28;20025;-43
2021/09/11 08:07:51;;;;;;;79.43;30.30;;;;;;;17.61;85.93;101525.91;5033119;28;20032;-43
2021/09/11 08:10:17;;;;;;;76.07;32.58;;;;;;;17.60;86.47;101528.84;5032179;28;20026;-43
2021/09/11 08:12:42;;;;;;;70.95;30.95;;;;;;;17.58;86.05;101520.88;5032655;28;20078;-43
2021/09/11 08:15:08;;;;;;;72.30;32.42;;;;;;;17.54;86.18;101530.53;5030091;28;20029;-43
2021/09/11 08:17:33;;;;;;;91.57;33.65;;;;;;;17.51;86.81;101531.78;5030439;28;20110;-43
2021/09/11 08:19:59;;;;;;;78.10;32.50;;;;;;;17.53;87.01;101528.84;5030819;28;20080;-43
2021/09/11 08:22:25;;;;;;;80.57;32.42;;;;;;;17.60;86.34;101524.22;5029738;28;20163;-43
2021/09/11 08:24:51;;;;;;;86.30;33.13;;;;;;;17.62;86.45;101532.19;5029829;28;20025;-43
2021/09/11 08:27:16;;;;;;;74.30;33.13;;;;;;;17.64;86.54;101530.09;5029880;28;20044;-43
2021/09/11 08:29:42;;;;;;;79.80;31.20;;;;;;;17.75;86.36;101537.63;5024881;28;20053;-44
2021/09/11 08:32:08;;;;;;;93.20;33.40;;;;;;;17.72;86.43;101544.31;5030025;28;20044;-43
2021/09/11 08:34:33;;;;;;;73.20;31.95;;;;;;;17.82;86.07;101540.34;5029853;28;20430;-43
2021/09/11 08:36:58;;;;;;;71.65;32.45;;;;;;;17.89;86.40;101552.06;5025681;28;20389;-43
2021/09/11 08:39:25;;;;;;;74.38;31.55;;;;;;;17.86;86.26;101561.50;5028180;28;20063;-41
2021/09/11 08:41:52;;;;;;;77.35;32.67;;;;;;;17.87;86.20;101555.00;5026623;28;20490;-41
2021/09/11 08:44:17;;;;;;;67.53;31.48;;;;;;;17.85;85.97;101561.69;5029552;28;20114;-43
2021/09/11 08:46:43;;;;;;;77.15;33.03;;;;;;;17.85;86.75;101565.28;5029513;28;20437;-43
2021/09/11 08:49:10;;;;;;;69.95;31.75;;;;;;;17.83;86.30;101561.09;5030197;28;20040;-42
2021/09/11 08:51:35;;;;;;;82.60;32.42;;;;;;;17.84;86.59;101566.31;5029917;28;20116;-42
2021/09/11 08:54:01;;;;;;;76.85;33.38;;;;;;;17.83;86.61;101561.94;5029310;28;20456;-41
2021/09/11 08:56:26;;;;;;;70.00;31.63;;;;;;;17.91;86.69;101567.16;5029723;28;20037;-42
2021/09/11 08:59:06;;;;;;;78.60;33.13;;;;;;;17.97;86.88;101570.91;5029510;28;20045;-42
2021/09/11 09:01:31;;;;;;;62.22;29.73;;;;;;;18.04;86.98;101562.72;5029619;28;20485;-43
2021/09/11 09:03:57;;;;;;;62.70;30.10;;;;;;;17.99;86.10;101572.34;5044685;28;20129;-42
2021/09/11 09:06:28;;;;;;;68.38;29.67;;;;;;;18.11;86.41;101572.53;5029416;28;20116;-42
2021/09/11 09:09:02;;;;;;;58.70;28.20;;;;;;;18.16;85.83;101580.88;5029690;28;20393;-42
2021/09/11 09:11:32;;;;;;;57.65;28.02;;;;;;;18.20;85.55;101582.16;5028899;28;20120;-41
2021/09/11 09:14:04;;;;;;;65.07;29.23;;;;;;;18.41;85.54;101574.75;5029146;28;20478;-43
2021/09/11 09:16:35;;;;;;;55.97;27.23;;;;;;;18.53;84.80;101583.91;5028708;28;20033;-42
2021/09/11 09:19:20;;;;;;;45.28;25.77;;;;;;;18.53;83.83;101580.34;5029226;28;20354;-42
2021/09/11 09:21:48;;;;;;;58.40;26.17;;;;;;;18.57;84.61;101579.69;5029819;28;20033;-42
2021/09/11 09:24:15;;;;;;;;;;;;;;;18.53;83.72;101577.63;5030026;28;20385;-42
2021/09/11 09:26:56;;;;;;;65.43;27.80;;;;;;;18.40;84.27;101575.78;5029717;28;19913;-43
2021/09/11 09:29:22;;;;;;;57.50;28.00;;;;;;;18.49;84.39;101582.69;5032448;28;20120;-42
2021/09/11 09:31:50;;;;;;;65.30;29.52;;;;;;;18.52;84.91;101579.50;5032295;28;20537;-42
2021/09/11 09:34:27;;;;;;;;;;;;;;;18.51;85.04;101580.56;5032991;28;20385;-43
2021/09/11 09:36:55;;;;;;;53.95;28.70;;;;;;;18.39;85.30;101585.84;5031988;28;20007;-42
2021/09/11 09:39:20;;;;;;;55.95;29.17;;;;;;;18.36;85.60;101582.72;5012535;28;20057;-42
2021/09/11 09:41:48;;;;;;;61.55;29.80;;;;;;;18.38;85.47;101576.00;5014556;28;20486;-42
2021/09/11 09:44:14;;;;;;;69.88;30.38;;;;;;;18.46;85.38;101582.25;5031937;28;20045;-42
2021/09/11 09:46:41;;;;;;;57.88;28.63;;;;;;;18.54;85.26;101582.88;5032198;28;20030;-42
2021/09/11 09:49:07;;;;;;;60.97;28.52;;;;;;;18.73;85.08;101589.25;5032164;28;20029;-43
2021/09/11 09:51:33;;;;;;;53.08;27.08;;;;;;;18.71;83.04;101587.81;5032426;28;20440;-44
2021/09/11 09:54:00;;;;;;;57.42;27.00;;;;;;;18.70;83.70;101591.59;5032241;28;20432;-43
2021/09/11 09:56:28;;;;;;;60.13;27.17;;;;;;;18.82;84.40;101587.97;5033264;28;20079;-43
2021/09/11 09:58:54;;;;;;;51.40;27.42;;;;;;;18.84;84.33;101587.78;5031062;28;20033;-43
2021/09/11 10:01:20;;;;;;;56.60;26.85;;;;;;;18.92;83.65;101587.50;5012901;28;20030;-43
2021/09/11 10:03:46;;;;;;;57.55;25.20;;;;;;;18.99;83.21;101587.47;5012850;28;20025;-43
2021/09/11 10:06:14;;;;;;;43.38;20.60;;;;;;;19.00;82.60;101580.94;5013513;28;20022;-43
2021/09/11 10:08:48;;;;;;;27.35;15.95;;;;;;;19.00;82.02;101587.25;5012369;28;20064;-43
2021/09/11 10:11:13;;;;;;;30.55;17.00;;;;;;;18.95;82.16;101584.34;5014160;28;20080;-43
2021/09/11 10:13:39;;;;;;;33.35;16.17;;;;;;;18.95;81.86;101578.88;5031796;28;20033;-43
2021/09/11 10:16:08;;;;;;;32.40;14.20;;;;;;;18.96;81.24;101583.28;5032086;28;20485;-43
2021/09/11 10:18:33;;;;;;;32.42;13.23;;;;;;;18.92;80.81;101582.06;5031912;28;20045;-44
2021/09/11 10:21:21;;;;;;;23.03;13.63;;;;;;;18.91;80.57;101580.38;5031818;28;20072;-43
2021/09/11 10:23:56;;;;;;;27.20;14.05;;;;;;;18.94;81.26;101588.13;5033485;28;20294;-43
2021/09/11 10:26:43;;;;;;;27.73;14.05;;;;;;;19.03;80.89;101581.34;5032373;28;20052;-44
2021/09/11 10:29:30;;;;;;;27.33;12.40;;;;;;;19.17;80.55;101590.28;5032857;28;20041;-44
2021/09/11 10:32:00;;;;;;;28.90;12.38;;;;;;;19.27;79.59;101585.19;5013137;28;20030;-42
2021/09/11 10:34:44;;;;;;;36.65;12.93;;;;;;;19.46;80.30;101586.06;5013233;28;20042;-43
2021/09/11 10:37:10;;;;;;;27.05;12.60;;;;;;;19.58;80.77;101580.72;5027210;28;20087;-43
2021/09/11 10:39:36;;;;;;;25.23;12.07;;;;;;;19.78;78.81;101582.47;5032590;28;20036;-42
2021/09/11 10:42:05;;;;;;;25.92;11.90;;;;;;;19.90;78.49;101578.75;5032838;28;20036;-42
2021/09/11 10:44:31;;;;;;;27.20;12.73;;;;;;;19.88;78.71;101578.16;5032523;28;20059;-42
2021/09/11 10:46:56;;;;;;;33.65;13.75;;;;;;;19.68;79.68;101591.16;5031442;28;20382;-43
2021/09/11 10:49:37;;;;;;;45.42;16.20;;;;;;;19.48;82.26;101583.97;5031934;28;20060;-45
2021/09/11 10:52:05;;;;;;;35.78;17.00;;;;;;;19.03;83.08;101585.97;5032438;28;20037;-46
2021/09/11 10:54:33;;;;;;;38.75;18.83;;;;;;;18.93;86.06;101588.34;5032392;28;20487;-43
2021/09/11 10:56:58;;;;;;;49.35;19.27;;;;;;;18.91;85.02;101583.13;5032716;28;20036;-43
2021/09/11 10:59:28;;;;;;;42.20;20.67;;;;;;;18.91;86.42;101582.28;5033442;28;20057;-43
2021/09/11 11:02:16;;;;;;;51.28;19.83;;;;;;;18.81;85.29;101580.84;5033146;28;20033;-42
2021/09/11 11:04:47;;;;;;;46.47;20.13;;;;;;;18.87;86.35;101590.06;5035414;28;20069;-42
2021/09/11 11:07:14;;;;;;;35.20;16.02;;;;;;;19.03;86.62;101586.78;5032094;28;20025;-43